Time;durP1;ratioP1;P1;durP2;ratioP2;P2;SDS_P1;SDS_P2;PMS_P1;PMS_P2;Temp;Humidity;BMP_temperature;BMP_pressure;BME280_temperature;BME280_humidity;BME280_pressure;Samples;Min_cycle;Max_cycle;Signal;HPM_P1;HPM_P2
2022/12/12 00:00:49;;;;;;;;;44.75;38.75;;;;;-0.33;100.00;100276.69;6224050;22;45446;-83
2022/12/12 00:03:16;;;;;;;;;41.00;38.25;;;;;-0.36;100.00;100271.31;6224944;22;46439;-83
2022/12/12 00:05:41;;;;;;;;;44.00;36.00;;;;;-0.36;100.00;100273.00;6224101;22;45284;-83
2022/12/12 00:08:07;;;;;;;;;38.00;34.75;;;;;-0.37;100.00;100264.28;6224359;22;45304;-83
2022/12/12 00:10:33;;;;;;;;;40.00;33.00;;;;;-0.37;100.00;100268.63;6226589;22;45415;-84
2022/12/12 00:12:59;;;;;;;;;41.25;37.00;;;;;-0.37;100.00;100268.63;6226919;22;47743;-84
2022/12/12 00:15:26;;;;;;;;;50.75;44.25;;;;;-0.37;100.00;100264.28;6226141;22;45410;-85
2022/12/12 00:17:51;;;;;;;;;38.50;32.00;;;;;-0.36;100.00;100270.41;6225552;22;45409;-83
2022/12/12 00:20:17;;;;;;;;;33.00;31.25;;;;;-0.41;100.00;100267.56;6225190;22;45398;-83
2022/12/12 00:22:42;;;;;;;;;42.75;41.00;;;;;-0.32;100.00;100285.44;6227691;22;45380;-85
2022/12/12 00:25:08;;;;;;;;;38.25;33.50;;;;;-0.26;100.00;100289.25;6225876;22;45406;-83
2022/12/12 00:27:34;;;;;;;;;49.25;42.00;;;;;-0.24;100.00;100294.56;6251055;22;45295;-83
2022/12/12 00:30:03;;;;;;;;;42.50;38.00;;;;;-0.22;100.00;100285.97;6251183;22;45771;-82
2022/12/12 00:32:29;;;;;;;;;39.25;35.75;;;;;-0.13;100.00;100289.84;6225980;22;47285;-83
2022/12/12 00:34:54;;;;;;;;;40.25;35.75;;;;;-0.15;100.00;100281.03;6228567;22;44778;-82
2022/12/12 00:37:20;;;;;;;;;48.75;44.75;;;;;-0.05;100.00;100288.50;6202804;22;45441;-82
2022/12/12 00:43:09;;;;;;;;;45.00;35.75;;;;;-0.03;100.00;100292.09;6230256;22;45732;-82
2022/12/12 00:45:36;;;;;;;;;41.50;33.50;;;;;0.02;100.00;100297.53;6227048;22;45789;-82
2022/12/12 00:48:02;;;;;;;;;37.75;34.50;;;;;-0.04;100.00;100290.28;6226080;22;45375;-83
2022/12/12 00:50:28;;;;;;;;;48.25;42.00;;;;;-0.02;100.00;100291.25;6225561;22;45311;-83
2022/12/12 00:52:55;;;;;;;;;41.75;37.75;;;;;-0.02;100.00;100288.66;6225653;22;46281;-83
2022/12/12 00:55:22;;;;;;;;;44.25;41.50;;;;;0.01;100.00;100298.38;6229434;22;44825;-84
2022/12/12 00:57:48;;;;;;;;;46.25;37.25;;;;;0.03;100.00;100297.63;6228692;22;44824;-83
2022/12/12 01:00:14;;;;;;;;;39.00;34.25;;;;;0.10;100.00;100302.34;6230192;22;45482;-83
2022/12/12 01:02:40;;;;;;;;;47.00;44.50;;;;;0.09;100.00;100302.25;6231094;22;45241;-82
2022/12/12 01:05:06;;;;;;;;;42.00;40.00;;;;;0.00;100.00;100281.81;6229602;22;45417;-80
2022/12/12 01:08:14;;;;;;;;;36.50;33.50;;;;;0.07;100.00;100296.97;6255061;22;45290;-83
2022/12/12 01:10:40;;;;;;;;;37.00;36.75;;;;;0.04;100.00;100286.38;6227416;22;45437;-84
2022/12/12 01:13:06;;;;;;;;;32.75;29.75;;;;;0.11;100.00;100290.16;6227721;22;46652;-83
2022/12/12 01:15:31;;;;;;;;;47.75;38.50;;;;;0.10;100.00;100283.13;6226774;22;45211;-82
2022/12/12 01:17:58;;;;;;;;;37.75;32.00;;;;;0.16;100.00;100288.66;6227227;22;44676;-81
2022/12/12 01:20:26;;;;;;;;;41.50;35.25;;;;;0.12;100.00;100282.41;6226172;22;45291;-82
2022/12/12 01:22:52;;;;;;;;;46.75;34.50;;;;;0.22;100.00;100298.50;6225089;22;47020;-82
2022/12/12 01:25:20;;;;;;;;;48.75;43.00;;;;;0.27;100.00;100302.25;6228188;22;45255;-83
2022/12/12 01:27:46;;;;;;;;;56.00;43.75;;;;;0.28;100.00;100298.81;6203771;22;44687;-82
2022/12/12 01:30:15;;;;;;;;;36.50;31.00;;;;;0.32;100.00;100303.38;6229795;22;45330;-81
2022/12/12 01:32:40;;;;;;;;;38.75;31.00;;;;;0.30;100.00;100292.81;6230121;22;46875;-83
2022/12/12 01:35:07;;;;;;;;;44.00;33.25;;;;;0.33;100.00;100295.59;6229785;22;44851;-82
2022/12/12 01:37:38;;;;;;;;;47.25;37.25;;;;;0.36;100.00;100294.84;6230254;22;45454;-83
2022/12/12 01:40:07;;;;;;;;;32.75;29.50;;;;;0.39;100.00;100289.78;6230501;22;45383;-84
2022/12/12 01:42:34;;;;;;;;;46.75;40.25;;;;;0.49;100.00;100299.84;6232270;22;46410;-83
2022/12/12 01:45:00;;;;;;;;;40.00;33.75;;;;;0.49;100.00;100293.72;6233352;22;45319;-83
2022/12/12 01:47:26;;;;;;;;;29.50;26.50;;;;;0.47;100.00;100296.25;6232676;22;44700;-83
2022/12/12 01:49:58;;;;;;;;;32.00;30.50;;;;;0.50;100.00;100295.50;6230921;22;45282;-82
2022/12/12 01:52:31;;;;;;;;;46.50;40.00;;;;;0.55;100.00;100300.13;6257233;22;45530;-82
2022/12/12 01:55:01;;;;;;;;;44.00;39.75;;;;;0.53;100.00;100298.28;6256851;22;45326;-84
2022/12/12 01:57:36;;;;;;;;;50.75;40.25;;;;;0.34;100.00;100272.94;6230394;22;44755;-83
2022/12/12 02:00:06;;;;;;;;;35.00;33.00;;;;;0.47;100.00;100301.50;6230821;22;45322;-82
2022/12/12 02:05:58;;;;;;;;;41.50;38.75;;;;;0.49;100.00;100302.47;6256948;22;45417;-83
2022/12/12 02:08:25;;;;;;;;;45.75;35.00;;;;;0.43;100.00;100286.47;6230460;22;44777;-83
2022/12/12 02:10:51;;;;;;;;;33.33;26.67;;;;;0.35;100.00;100272.13;6230423;22;45338;-82
2022/12/12 02:13:20;;;;;;;;;27.33;26.00;;;;;0.48;100.00;100302.38;6229529;22;47084;-81
2022/12/12 02:16:08;;;;;;;;;38.00;36.00;;;;;0.47;100.00;100298.00;6230051;22;45362;-82
2022/12/12 02:19:02;;;;;;;;;38.75;30.50;;;;;0.46;100.00;100296.19;6229727;22;45350;-82
2022/12/12 02:21:30;;;;;;;;;27.00;24.75;;;;;0.53;100.00;100293.03;6256028;22;44856;-82
2022/12/12 02:23:58;;;;;;;;;40.25;37.00;;;;;0.53;100.00;100296.53;6253872;22;45413;-83
2022/12/12 02:27:00;;;;;;;;;43.00;35.50;;;;;0.44;100.00;100283.03;6227923;22;45375;-82
2022/12/12 02:29:56;;;;;;;;;29.00;29.00;;;;;0.55;100.00;100305.38;6226561;22;45382;-83
2022/12/12 02:32:59;;;;;;;;;37.25;29.00;;;;;0.58;100.00;100305.50;6254474;22;45280;-83
2022/12/12 02:35:40;;;;;;;;;41.75;33.50;;;;;0.54;100.00;100306.16;6225518;22;47687;-82
2022/12/12 02:38:28;;;;;;;;;35.75;30.50;;;;;0.57;100.00;100310.69;6252032;22;45420;-83
2022/12/12 02:41:14;;;;;;;;;35.00;31.33;;;;;0.58;100.00;100312.44;6253672;22;44691;-84
2022/12/12 02:43:42;;;;;;;;;42.25;36.00;;;;;0.55;100.00;100313.22;6225002;22;44832;-83
2022/12/12 02:46:24;;;;;;;;;37.00;32.50;;;;;0.51;100.00;100298.19;6252790;22;45482;-83
2022/12/12 02:49:03;;;;;;;;;32.67;29.67;;;;;0.46;100.00;100293.56;6254398;22;44831;-83
2022/12/12 02:51:32;;;;;;;;;35.75;30.00;;;;;0.49;100.00;100293.72;6251830;22;44756;-83
2022/12/12 02:53:59;;;;;;;;;33.33;23.33;;;;;0.52;100.00;100297.34;6226055;22;45566;-83
2022/12/12 02:56:49;;;;;;;;;32.75;28.00;;;;;0.56;100.00;100306.25;6226450;22;46965;-82
2022/12/12 02:59:24;;;;;;;;;31.33;28.33;;;;;0.56;100.00;100306.25;6252938;22;45364;-83
2022/12/12 03:02:11;;;;;;;;;30.50;28.00;;;;;0.56;100.00;100295.78;6225521;22;45416;-82
2022/12/12 03:07:52;;;;;;;;;31.00;28.33;;;;;0.65;100.00;100300.53;6256696;22;45305;-82
2022/12/12 03:10:39;;;;;;;;;28.33;26.00;;;;;0.66;100.00;100295.38;6256369;22;45187;-82
2022/12/12 03:13:26;;;;;;;;;26.33;24.00;;;;;0.68;100.00;100298.09;6228395;22;45594;-83
2022/12/12 03:16:32;;;;;;;;;32.00;23.33;;;;;0.69;100.00;100294.66;6228772;22;45484;-83
2022/12/12 03:19:22;;;;;;;;;29.67;26.00;;;;;0.72;100.00;100295.66;6255749;22;45607;-83
2022/12/12 03:21:54;;;;;;;;;30.33;27.33;;;;;0.65;100.00;100272.69;6224813;22;45274;-83
2022/12/12 03:24:30;;;;;;;;;26.33;23.67;;;;;0.67;100.00;100288.47;6224748;22;45394;-83
2022/12/12 03:27:43;;;;;;;;;27.00;23.00;;;;;0.68;100.00;100291.13;6254461;22;45436;-83
2022/12/12 03:30:13;;;;;;;;;32.00;28.00;;;;;0.67;100.00;100285.84;6189171;23;47603;-82
2022/12/12 03:32:49;;;;;;;;;31.00;29.33;;;;;0.65;100.00;100277.91;6161763;23;45297;-82
2022/12/12 03:35:39;;;;;;;;;25.33;18.00;;;;;0.59;100.00;100277.63;6190909;23;44847;-83
2022/12/12 03:38:13;;;;;;;;;28.33;27.00;;;;;0.65;100.00;100285.75;6190949;23;45350;-83
2022/12/12 03:41:00;;;;;;;;;34.33;26.33;;;;;0.66;100.00;100297.13;6190347;23;45616;-83
2022/12/12 03:43:30;;;;;;;;;24.33;24.33;;;;;0.68;100.00;100301.59;6190383;23;45337;-82
2022/12/12 03:46:07;;;;;;;;;34.33;27.00;;;;;0.69;100.00;100302.50;6191979;23;44744;-82
2022/12/12 03:48:40;;;;;;;;;30.33;26.00;;;;;0.59;100.00;100291.59;6192723;23;45339;-83
2022/12/12 03:51:26;;;;;;;;;29.00;28.33;;;;;0.67;100.00;100304.16;6191572;23;46931;-83
2022/12/12 03:54:04;;;;;;;;;32.33;25.00;;;;;0.65;100.00;100311.94;6190781;23;45365;-83
2022/12/12 03:56:50;;;;;;;;;36.33;27.67;;;;;0.67;100.00;100314.63;6192553;23;45463;-84
2022/12/12 03:59:23;;;;;;;;;29.00;27.00;;;;;0.67;100.00;100317.25;6168411;23;45593;-83
2022/12/12 04:02:08;;;;;;;;;25.33;23.67;;;;;0.68;100.00;100311.16;6194013;23;46226;-83
2022/12/12 04:04:52;;;;;;;;;27.33;23.33;;;;;0.68;100.00;100305.94;6191884;23;45373;-83
2022/12/12 04:07:20;;;;;;;;;30.67;29.00;;;;;0.77;100.00;100301.13;6215685;22;45314;-82
2022/12/12 04:12:58;;;;;;;;;24.00;23.33;;;;;0.88;100.00;100325.19;6225822;22;45341;-83
2022/12/12 04:15:52;;;;;;;;;32.67;26.67;;;;;0.88;100.00;100323.44;6225888;22;45399;-83
2022/12/12 04:18:21;;;;;;;;;35.33;31.33;;;;;0.86;100.00;100325.09;6225359;22;45413;-82
2022/12/12 04:24:02;;;;;;;;;35.00;29.00;;;;;0.96;100.00;100332.56;6227375;22;45427;-83
2022/12/12 04:26:46;;;;;;;;;32.00;28.33;;;;;0.93;100.00;100329.81;6226477;22;45401;-83
2022/12/12 04:29:39;;;;;;;;;33.00;30.00;;;;;0.90;100.00;100327.03;6223839;22;45737;-84
2022/12/12 04:32:11;;;;;;;;;31.00;24.67;;;;;0.99;100.00;100329.19;6223461;22;45347;-83
2022/12/12 04:34:58;;;;;;;;;36.33;31.00;;;;;0.95;100.00;100324.63;6223918;22;47215;-82
2022/12/12 04:37:30;;;;;;;;;37.67;29.67;;;;;0.94;100.00;100322.84;6230169;22;45248;-83
2022/12/12 04:39:58;;;;;;;;;30.33;27.00;;;;;0.96;100.00;100319.47;6231282;22;44698;-83
2022/12/12 04:42:28;;;;;;;;;34.33;27.33;;;;;0.97;100.00;100313.41;6230715;22;44871;-84
2022/12/12 04:45:01;;;;;;;;;35.67;29.00;;;;;0.95;100.00;100306.28;6229559;22;46061;-83
2022/12/12 04:47:30;;;;;;;;;32.33;30.33;;;;;0.97;100.00;100321.28;6230142;22;45067;-83
2022/12/12 04:50:06;;;;;;;;;28.00;24.33;;;;;1.00;100.00;100325.75;6229835;22;44773;-83
2022/12/12 04:52:33;;;;;;;;;26.33;23.67;;;;;0.93;100.00;100308.88;6225767;22;46000;-83
2022/12/12 04:55:20;;;;;;;;;31.00;25.33;;;;;0.93;100.00;100324.56;6227671;22;45455;-83
2022/12/12 04:57:53;;;;;;;;;27.67;25.33;;;;;0.92;100.00;100322.78;6225844;22;45422;-83
2022/12/12 05:00:21;;;;;;;;;34.67;33.00;;;;;0.93;100.00;100321.03;6224064;22;44739;-83
2022/12/12 05:02:59;;;;;;;;;24.33;23.33;;;;;0.96;100.00;100321.19;6225620;22;45415;-83
2022/12/12 05:05:41;;;;;;;;;33.67;33.67;;;;;0.95;100.00;100322.94;6225825;22;47030;-83
2022/12/12 05:08:22;;;;;;;;;29.00;25.00;;;;;0.93;100.00;100319.34;6226934;22;45912;-82
2022/12/12 05:10:53;;;;;;;;;24.67;24.67;;;;;0.94;100.00;100313.25;6228203;22;45279;-83
2022/12/12 05:13:27;;;;;;;;;33.67;26.67;;;;;0.77;100.00;100286.31;6226167;22;45352;-83
2022/12/12 05:15:54;;;;;;;;;38.33;30.33;;;;;0.92;100.00;100312.28;6227320;22;45678;-82
2022/12/12 05:18:21;;;;;;;;;33.00;27.33;;;;;0.93;100.00;100313.19;6225694;22;45206;-83
2022/12/12 05:20:47;;;;;;;;;27.00;27.00;;;;;1.03;100.00;100324.97;6250971;22;45290;-82
2022/12/12 05:23:13;;;;;;;;;28.33;25.00;;;;;1.07;100.00;100324.28;6227343;22;45341;-82
2022/12/12 05:25:38;;;;;;;;;29.00;21.67;;;;;1.08;100.00;100324.38;6226229;22;45400;-82
2022/12/12 05:28:04;;;;;;;;;31.00;23.00;;;;;1.18;100.00;100323.06;6250976;22;45415;-83
2022/12/12 05:30:30;;;;;;;;;27.33;24.00;;;;;1.21;100.00;100317.94;6224963;22;45460;-83
2022/12/12 05:32:55;;;;;;;;;34.00;30.33;;;;;1.18;100.00;100312.59;6226558;22;45458;-83
2022/12/12 05:35:24;;;;;;;;;31.67;25.33;;;;;1.05;100.00;100300.69;6225556;22;47592;-83
2022/12/12 05:37:49;;;;;;;;;36.00;29.33;;;;;0.96;100.00;100309.00;6250246;22;45215;-82
2022/12/12 05:40:16;;;;;;;;;29.00;25.00;;;;;0.91;100.00;100325.31;6226064;22;45250;-84
2022/12/12 05:42:41;;;;;;;;;37.75;29.75;;;;;0.82;100.00;100310.09;6225674;22;45348;-83
2022/12/12 05:45:08;;;;;;;;;28.50;24.75;;;;;0.82;100.00;100320.56;6224739;22;46708;-83
2022/12/12 05:47:34;;;;;;;;;24.33;23.00;;;;;0.70;100.00;100297.31;6225521;22;45425;-83
2022/12/12 05:49:59;;;;;;;;;27.00;24.00;;;;;0.77;100.00;100311.59;6223946;22;45493;-83
2022/12/12 05:52:26;;;;;;;;;32.75;25.00;;;;;0.86;100.00;100313.75;6253613;22;45290;-83
2022/12/12 05:54:55;;;;;;;;;30.67;28.00;;;;;0.87;100.00;100311.22;6232802;22;46769;-84
2022/12/12 05:57:20;;;;;;;;;35.00;27.67;;;;;0.85;100.00;100309.31;6259947;22;44836;-82
2022/12/12 05:59:46;;;;;;;;;25.33;23.67;;;;;0.88;100.00;100312.97;6232114;22;44716;-83
2022/12/12 06:02:15;;;;;;;;;26.67;24.00;;;;;0.96;100.00;100322.06;6233015;22;45253;-83
2022/12/12 06:04:41;;;;;;;;;36.67;34.00;;;;;0.94;100.00;100310.63;6232048;22;45351;-83
2022/12/12 06:07:07;;;;;;;;;28.50;26.75;;;;;1.01;100.00;100317.06;6256742;22;45324;-82
2022/12/12 06:09:32;;;;;;;;;39.75;30.00;;;;;0.96;100.00;100310.72;6256123;22;45452;-83
2022/12/12 06:11:58;;;;;;;;;30.00;25.67;;;;;1.03;100.00;100319.75;6228545;22;45658;-83
2022/12/12 06:14:25;;;;;;;;;41.67;34.33;;;;;0.87;100.00;100276.25;6254123;22;46781;-82
2022/12/12 06:16:51;;;;;;;;;33.67;28.00;;;;;1.13;100.00;100321.94;6255947;22;45295;-85
2022/12/12 06:19:20;;;;;;;;;35.33;32.00;;;;;1.20;100.00;100324.03;6226989;22;44893;-83
2022/12/12 06:21:47;;;;;;;;;39.33;28.67;;;;;1.13;100.00;100324.56;6227250;22;45421;-83
2022/12/12 06:24:15;;;;;;;;;30.75;30.00;;;;;1.08;100.00;100326.09;6254997;22;45495;-82
2022/12/12 06:26:41;;;;;;;;;38.00;30.33;;;;;1.09;100.00;100326.19;6227503;22;45360;-84
2022/12/12 06:29:07;;;;;;;;;36.75;33.50;;;;;1.11;100.00;100328.84;6227255;22;45298;-82
2022/12/12 06:31:32;;;;;;;;;35.00;27.67;;;;;0.84;100.00;100292.72;6256945;22;45312;-82
2022/12/12 06:33:59;;;;;;;;;36.00;31.33;;;;;1.00;100.00;100333.59;6255577;22;45732;-83
2022/12/12 06:36:25;;;;;;;;;36.00;35.00;;;;;0.89;100.00;100317.41;6227591;22;45372;-84
2022/12/12 06:38:53;;;;;;;;;28.75;26.25;;;;;0.96;100.00;100329.03;6229480;22;45428;-82
2022/12/12 06:41:19;;;;;;;;;34.50;31.50;;;;;0.96;100.00;100329.94;6258709;22;45770;-83
2022/12/12 06:43:45;;;;;;;;;39.75;35.00;;;;;0.82;100.00;100310.09;6231399;22;47675;-82
2022/12/12 06:46:22;;;;;;;;;27.67;27.67;;;;;0.91;100.00;100326.22;6257330;22;44856;-82
2022/12/12 06:48:48;;;;;;;;;29.67;27.33;;;;;0.90;100.00;100321.81;6257465;22;44754;-83
2022/12/12 06:51:35;;;;;;;;;21.50;19.75;;;;;0.87;100.00;100329.53;5893284;22;8393926;-83
2022/12/12 06:54:04;;;;;;;;;36.50;33.25;;;;;0.80;100.00;100338.78;6232334;22;44794;-83
2022/12/12 06:56:31;;;;;;;;;31.00;29.50;;;;;0.81;100.00;100344.94;6230756;22;48093;-83
2022/12/12 06:58:58;;;;;;;;;37.25;32.00;;;;;0.91;100.00;100339.31;6258025;22;45408;-82
2022/12/12 07:01:24;;;;;;;;;38.75;32.50;;;;;0.96;100.00;100321.19;6230174;22;45636;-83
2022/12/12 07:03:55;;;;;;;;;29.00;29.00;;;;;0.99;100.00;100314.38;6228841;22;45338;-83
2022/12/12 07:06:22;;;;;;;;;21.25;17.75;;;;;0.98;100.00;100309.94;6257137;22;46307;-83
2022/12/12 07:08:50;;;;;;;;;31.75;28.75;;;;;0.94;100.00;100305.41;6258889;22;44799;-83
2022/12/12 07:11:20;;;;;;;;;32.00;30.25;;;;;0.86;100.00;100317.25;6231151;22;45350;-82
2022/12/12 07:13:45;;;;;;;;;30.00;27.25;;;;;0.75;100.00;100316.75;6260222;22;45338;-83
2022/12/12 07:16:12;;;;;;;;;40.75;39.25;;;;;0.71;100.00;100330.53;6258204;22;45146;-82
2022/12/12 07:18:37;;;;;;;;;34.00;30.00;;;;;0.70;100.00;100336.56;6205881;22;45485;-82
2022/12/12 07:21:05;;;;;;;;;27.00;26.00;;;;;0.72;100.00;100344.50;6230265;22;44713;-83
2022/12/12 07:23:32;;;;;;;;;31.75;29.25;;;;;0.65;100.00;100331.94;6229979;22;44833;-82
2022/12/12 07:25:58;;;;;;;;;27.67;21.67;;;;;0.75;100.00;100344.66;6232631;22;46902;-84
2022/12/12 07:29:13;;;;;;;;;32.75;30.00;;;;;0.92;100.00;100345.44;6258756;22;45392;-83
2022/12/12 07:31:42;;;;;;;;;39.00;33.75;;;;;0.95;100.00;100346.50;6230086;22;44779;-82
2022/12/12 07:34:07;;;;;;;;;39.00;32.75;;;;;0.80;100.00;100332.69;6230795;22;45741;-83
2022/12/12 07:36:33;;;;;;;;;51.50;39.75;;;;;0.89;100.00;100354.06;6231762;22;46576;-82
2022/12/12 07:38:59;;;;;;;;;34.50;31.75;;;;;0.93;100.00;100345.53;6259865;22;45340;-82
2022/12/12 07:44:46;;;;;;;;;42.50;35.75;;;;;0.99;100.00;100347.53;6260735;22;44800;-81
2022/12/12 07:47:12;;;;;;;;;43.75;34.50;;;;;0.96;100.00;100335.16;6232430;22;46446;-83
2022/12/12 07:49:37;;;;;;;;;36.00;35.00;;;;;0.97;100.00;100331.75;6231099;22;45478;-83
2022/12/12 07:52:03;;;;;;;;;41.50;35.25;;;;;1.02;100.00;100344.16;6227682;22;44853;-83
2022/12/12 07:54:30;;;;;;;;;40.00;32.75;;;;;0.98;100.00;100353.56;6230262;22;45326;-82
2022/12/12 07:56:59;;;;;;;;;33.50;30.50;;;;;0.97;100.00;100350.06;6226941;22;46596;-84
2022/12/12 07:59:24;;;;;;;;;42.75;37.00;;;;;1.02;100.00;100355.50;6228654;22;45399;-83
2022/12/12 08:01:50;;;;;;;;;40.00;35.50;;;;;1.05;100.00;100360.91;6230802;22;45368;-84
2022/12/12 08:04:25;;;;;;;;;36.50;32.75;;;;;1.03;100.00;100367.78;6232481;22;45382;-83
2022/12/12 08:10:14;;;;;;;;;38.50;33.75;;;;;1.25;100.00;100374.00;6232409;22;45367;-83
2022/12/12 08:12:40;;;;;;;;;38.50;33.00;;;;;1.08;100.00;100333.94;6229812;22;45349;-82
2022/12/12 08:15:14;;;;;;;;;32.00;29.50;;;;;1.15;100.00;100352.66;6230790;22;44773;-84
2022/12/12 08:17:40;;;;;;;;;37.50;33.75;;;;;1.18;100.00;100378.97;6204679;22;46828;-83
2022/12/12 08:20:09;;;;;;;;;42.75;36.00;;;;;0.93;100.00;100344.59;6230965;22;44692;-84
2022/12/12 08:22:34;;;;;;;;;29.75;23.50;;;;;1.03;100.00;100366.88;6229680;22;44743;-83
2022/12/12 08:25:10;;;;;;;;;40.25;34.25;;;;;0.94;100.00;100357.78;6234334;22;45320;-84
2022/12/12 08:27:46;;;;;;;;;38.75;32.50;;;;;0.92;100.00;100359.41;6263845;22;45185;-84
2022/12/12 08:30:15;;;;;;;;;37.00;34.00;;;;;1.03;100.00;100373.03;6232489;22;44791;-84
2022/12/12 08:33:01;;;;;;;;;45.00;39.50;;;;;0.97;100.00;100368.41;6235293;22;44682;-83
2022/12/12 08:35:44;;;;;;;;;42.00;36.25;;;;;0.98;100.00;100379.75;6228341;22;44800;-83
2022/12/12 08:38:27;;;;;;;;;37.25;35.00;;;;;0.97;100.00;100384.13;6230352;22;45389;-84
2022/12/12 08:41:06;;;;;;;;;39.75;35.50;;;;;1.08;100.00;100394.19;6230711;22;44858;-83
2022/12/12 08:43:49;;;;;;;;;38.25;37.00;;;;;1.12;100.00;100398.75;6230502;22;45320;-83
2022/12/12 08:46:23;;;;;;;;;33.75;33.00;;;;;1.13;100.00;100409.28;6233019;22;44949;-83
2022/12/12 08:48:50;;;;;;;;;34.00;33.50;;;;;1.19;100.00;100411.28;6229815;22;46881;-83
2022/12/12 08:52:28;;;;;;;;;47.75;33.00;;;;;1.32;100.00;100415.38;6237193;22;44805;-84
2022/12/12 08:54:57;;;;;;;;;50.00;38.75;;;;;1.48;100.00;100403.88;6234372;22;44809;-85
2022/12/12 08:58:13;;;;;;;;;34.00;32.75;;;;;1.49;100.00;100390.81;6236179;22;45390;-84
2022/12/12 09:01:47;;;;;;;;;41.00;34.50;;;;;1.40;100.00;100401.78;6266124;22;45359;-84
2022/12/12 09:05:13;;;;;;;;;50.75;38.50;;;;;1.38;100.00;100408.69;6146319;23;44894;-83
2022/12/12 09:08:51;;;;;;;;;;;;;;;;;;;;;
2022/12/12 09:11:49;;;;;;;;;39.00;33.50;;;;;1.39;100.00;100410.50;6026530;23;45226;-86
2022/12/12 09:14:41;;;;;;;;;39.00;36.00;;;;;1.19;100.00;100386.00;6024131;23;45318;-83
2022/12/12 09:35:48;;;;;;;;;;;;;;;;;;;;;
2022/12/12 09:41:51;;;;;;;;;40.50;35.75;;;;;1.27;100.00;100398.53;6263180;22;45081;-84
2022/12/12 09:45:04;;;;;;;;;40.50;35.75;;;;;1.30;100.00;100401.31;6170826;23;44952;-84
2022/12/12 10:01:24;;;;;;;;;43.75;36.75;;;;;1.44;100.00;100388.84;6171981;22;46687;-84
2022/12/12 10:04:40;;;;;;;;;52.25;44.00;;;;;1.54;100.00;100396.28;6210664;22;44884;-84
2022/12/12 10:23:21;;;;;;;;;47.25;40.00;;;;;1.84;100.00;100352.16;6189968;22;46953;-83
2022/12/12 10:26:35;;;;;;;;;54.25;43.25;;;;;1.83;100.00;100354.72;6177979;23;45528;-85
2022/12/12 10:33:18;;;;;;;;;46.25;43.00;;;;;1.77;100.00;100361.47;6119246;23;44995;-86
2022/12/12 10:36:36;;;;;;;;;55.75;43.75;;;;;1.75;100.00;100368.38;6201834;23;44712;-86
2022/12/12 10:42:45;;;;;;;;;49.50;43.50;;;;;1.59;100.00;100360.69;6265730;22;45162;-85
2022/12/12 10:46:26;;;;;;;;;47.50;41.75;;;;;1.66;100.00;100370.63;6136408;23;45244;-83
2022/12/12 11:03:41;;;;;;;;;;;;;;;;;;;;;
2022/12/12 11:06:45;;;;;;;;;51.00;43.25;;;;;1.35;100.00;100335.19;6026665;23;69320;-83
2022/12/12 11:13:13;;;;;;;;;52.00;43.00;;;;;0.93;100.00;100266.97;5998919;23;45244;-84
2022/12/12 11:16:23;;;;;;;;;54.50;44.75;;;;;1.22;100.00;100309.28;5972834;23;44781;-86
2022/12/12 11:19:28;;;;;;;;;50.25;42.50;;;;;1.23;100.00;100307.53;5970082;23;44852;-85
2022/12/12 11:22:09;;;;;;;;;49.25;42.75;;;;;1.21;100.00;100297.00;5913626;23;44857;-84
2022/12/12 11:24:44;;;;;;;;;52.25;43.50;;;;;1.20;100.00;100287.34;6019997;23;45131;-83
2022/12/12 11:34:32;;;;;;;;;65.50;51.50;;;;;1.11;100.00;100243.34;6030836;23;45490;-84
2022/12/12 11:44:02;;;;;;;;;45.50;40.25;;;;;1.16;100.00;100264.47;6160140;22;45668;-85
2022/12/12 11:46:32;;;;;;;;;54.00;48.75;;;;;1.06;100.00;100250.09;6236578;22;44872;-85
2022/12/12 11:50:01;;;;;;;;;52.75;43.50;;;;;0.93;100.00;100235.56;6234411;22;45414;-84
2022/12/12 11:52:46;;;;;;;;;47.75;37.75;;;;;1.13;100.00;100264.31;6183171;23;45406;-84
2022/12/12 11:55:19;;;;;;;;;42.75;40.75;;;;;1.11;100.00;100260.75;6202761;23;45441;-84
2022/12/12 11:58:26;;;;;;;;;39.75;36.25;;;;;1.12;100.00;100273.91;6179820;23;45538;-83
2022/12/12 12:05:01;;;;;;;;;57.50;42.75;;;;;1.15;100.00;100273.16;6188033;22;45399;-85
2022/12/12 12:08:47;;;;;;;;;43.75;39.75;;;;;1.17;100.00;100266.25;6174232;23;44831;-85
2022/12/12 12:12:06;;;;;;;;;31.25;29.50;;;;;1.20;100.00;100262.06;6056046;23;45540;-84
2022/12/12 12:15:17;;;;;;;;;38.50;34.25;;;;;1.25;100.00;100263.97;6060080;23;45435;-88
2022/12/12 12:18:13;;;;;;;;;42.00;40.25;;;;;1.23;100.00;100257.78;6166460;23;44742;-83
2022/12/12 12:21:00;;;;;;;;;36.50;33.50;;;;;1.23;100.00;100253.44;6169813;23;45321;-84
2022/12/12 12:24:33;;;;;;;;;;;;;;;;;;;;;
2022/12/12 12:31:05;;;;;;;;;44.25;42.50;;;;;1.25;100.00;100248.25;5999138;23;44937;-83
2022/12/12 12:34:21;;;;;;;;;;;;;;;;;;;;;
2022/12/12 12:37:36;;;;;;;;;42.75;32.75;;;;;1.39;100.00;100234.03;6135246;23;64918;-86
2022/12/12 12:40:17;;;;;;;;;52.75;44.00;;;;;1.35;100.00;100233.03;6116757;23;45004;-82
2022/12/12 12:43:16;;;;;;;;;51.25;41.25;;;;;1.27;100.00;100229.16;6148975;23;45839;-85
2022/12/12 12:46:20;;;;;;;;;;;;;;;;;;;;;
2022/12/12 12:49:45;;;;;;;;;49.75;43.00;;;;;1.13;100.00;100222.44;6084547;23;65002;-87
2022/12/12 12:56:27;;;;;;;;;47.25;40.25;;;;;1.03;100.00;100201.91;6151754;22;45435;-83
2022/12/12 12:59:03;;;;;;;;;43.75;42.00;;;;;0.96;100.00;100175.47;6238776;22;45371;-85
2022/12/12 13:01:56;;;;;;;;;51.50;45.00;;;;;1.00;100.00;100163.41;6262862;22;45452;-84
2022/12/12 13:04:29;;;;;;;;;56.50;42.75;;;;;1.33;100.00;100216.34;6237059;22;46750;-84
2022/12/12 13:11:14;;;;;;;;;49.00;43.50;;;;;1.20;100.00;100172.13;6145108;23;44791;-85
2022/12/12 13:42:33;;;;;;;;;43.25;37.75;;;;;1.58;100.00;100171.09;6099210;23;45187;-87
2022/12/12 13:57:03;;;;;;;;;49.50;44.25;;;;;1.63;100.00;100173.88;6166691;22;45644;-86
2022/12/12 14:07:17;;;;;;;;;;;;;;;;;;;;;
2022/12/12 14:09:59;;;;;;;;;48.25;41.50;;;;;1.61;100.00;100146.72;6138851;23;72341;-85
2022/12/12 14:12:54;;;;;;;;;53.75;46.00;;;;;1.60;100.00;100144.94;6227990;22;45437;-84
2022/12/12 14:16:00;;;;;;;;;41.75;37.75;;;;;1.71;100.00;100174.19;6208743;22;44872;-85
2022/12/12 14:18:46;;;;;;;;;47.50;41.25;;;;;1.73;100.00;100170.81;6195775;22;47109;-85
2022/12/12 14:22:06;;;;;;;;;;;;;;;;;;;;;
2022/12/12 14:24:53;;;;;;;;;;;;;;;;;;;;;
2022/12/12 14:28:10;;;;;;;;;42.50;36.25;;;;;1.75;99.88;100163.00;6118468;23;65352;-87
2022/12/12 14:31:15;;;;;;;;;36.67;31.67;;;;;1.73;98.52;100170.81;6191682;22;45106;-86
2022/12/12 14:34:45;;;;;;;;;39.33;36.00;;;;;1.75;98.89;100163.00;6230114;22;45132;-86
2022/12/12 14:41:34;;;;;;;;;39.25;33.50;;;;;1.53;98.59;100122.81;6206582;22;45363;-86
2022/12/12 14:44:06;;;;;;;;;41.25;35.25;;;;;1.77;98.48;100167.47;6199442;22;45363;-84
2022/12/12 14:47:12;;;;;;;;;41.50;36.00;;;;;1.51;99.41;100123.59;6201801;22;45491;-87
2022/12/12 14:50:16;;;;;;;;;48.50;42.50;;;;;1.54;100.00;100142.06;6221336;22;44854;-85
2022/12/12 14:52:45;;;;;;;;;37.25;34.00;;;;;1.35;100.00;100119.44;6179966;22;44857;-85
2022/12/12 14:55:16;;;;;;;;;42.50;40.00;;;;;1.26;100.00;100104.25;6204990;22;46975;-84
2022/12/12 17:07:43;;;;;;;;;41.00;36.75;;;;;-0.08;100.00;100149.81;6204690;22;44956;-85
2022/12/12 17:11:24;;;;;;;;;;;;;;;;;;;;;
2022/12/12 17:17:57;;;;;;;;;;;;;;;;;;;;;
2022/12/12 17:20:44;;;;;;;;;32.25;28.75;;;;;-0.26;100.00;100148.16;5987547;23;45085;-86
2022/12/12 17:23:22;;;;;;;;;44.25;37.75;;;;;-0.58;100.00;100096.09;6049552;23;45352;-85
2022/12/12 17:26:01;;;;;;;;;40.50;36.00;;;;;-0.22;100.00;100157.03;6050869;23;44760;-84
2022/12/12 17:28:28;;;;;;;;;34.00;31.25;;;;;-0.33;100.00;100134.72;6048707;23;45333;-85
2022/12/12 17:31:05;;;;;;;;;;;;;;;;;;;;;
2022/12/12 17:40:30;;;;;;;;;34.00;32.25;;;;;-0.59;100.00;100089.06;6101416;23;45302;-85
2022/12/12 17:43:20;;;;;;;;;;;;;;;;;;;;;